createdAt,value
2017-08-21T00:01:14.281Z,62.40
2017-08-21T00:03:42.738Z,62.30
2017-08-21T00:06:11.086Z,62.20
2017-08-21T00:08:39.545Z,62.20
2017-08-21T00:11:07.895Z,62.30
2017-08-21T00:13:36.253Z,62.30
2017-08-21T00:16:04.816Z,62.20
2017-08-21T00:18:33.299Z,62.40
2017-08-21T00:21:01.678Z,62.80
2017-08-21T00:23:30.038Z,63.00
2017-08-21T00:25:58.399Z,62.80
2017-08-21T00:28:26.789Z,62.90
2017-08-21T00:30:55.283Z,63.00
2017-08-21T00:33:23.657Z,63.30
2017-08-21T00:35:51.998Z,63.60
2017-08-21T00:38:21.125Z,63.30
2017-08-21T00:40:49.486Z,63.30
2017-08-21T00:43:17.826Z,63.30
2017-08-21T00:45:46.354Z,63.50
2017-08-21T00:48:14.730Z,63.50
2017-08-21T00:50:42.800Z,64.20
2017-08-21T00:53:11.141Z,64.60
2017-08-21T00:55:39.605Z,64.90
2017-08-21T00:58:07.962Z,65.20
2017-08-21T01:00:35.630Z,65.70
2017-08-21T01:03:03.975Z,65.80
2017-08-21T01:05:33.106Z,66.40
2017-08-21T01:08:01.474Z,66.60
2017-08-21T01:10:30.113Z,67.00
2017-08-21T01:12:58.576Z,67.00
2017-08-21T01:15:26.930Z,67.40
2017-08-21T01:17:55.298Z,67.00
2017-08-21T01:20:23.646Z,67.70
2017-08-21T01:22:52.020Z,68.00
2017-08-21T01:25:20.369Z,67.90
2017-08-21T01:27:48.846Z,68.10
2017-08-21T01:30:17.191Z,68.10
2017-08-21T01:32:46.319Z,68.20
2017-08-21T01:35:14.894Z,68.20
2017-08-21T01:37:43.234Z,68.40
2017-08-21T01:40:12.557Z,69.00
2017-08-21T01:42:40.988Z,68.90
2017-08-21T01:45:09.346Z,69.30
2017-08-21T01:47:37.698Z,69.30
2017-08-21T01:50:06.044Z,69.30
2017-08-21T01:52:34.408Z,69.50
2017-08-21T01:55:02.973Z,69.80
2017-08-21T01:57:31.405Z,69.70
2017-08-21T02:00:00.087Z,69.70
2017-08-21T02:02:28.441Z,69.90
2017-08-21T02:04:57.681Z,70.00
2017-08-21T02:07:26.051Z,70.50
2017-08-21T02:09:54.415Z,71.10
2017-08-21T02:12:22.786Z,71.10
2017-08-21T02:14:51.117Z,71.40
2017-08-21T02:17:19.478Z,71.70
2017-08-21T02:19:48.023Z,71.80
2017-08-21T02:22:16.442Z,72.00
2017-08-21T02:24:45.002Z,72.10
2017-08-21T02:27:13.450Z,72.20
2017-08-21T02:29:41.825Z,72.30
2017-08-21T02:32:10.178Z,72.10
2017-08-21T02:34:38.526Z,72.30
2017-08-21T02:37:06.894Z,72.70
2017-08-21T02:39:35.432Z,73.10
2017-08-21T02:42:03.875Z,73.40
2017-08-21T02:44:32.224Z,73.60
2017-08-21T02:47:01.276Z,73.50
2017-08-21T02:49:29.630Z,73.70
2017-08-21T02:51:58.002Z,73.70
2017-08-21T02:54:26.359Z,73.80
2017-08-21T02:56:54.368Z,74.20
2017-08-21T02:59:22.726Z,74.10
2017-08-21T03:01:51.119Z,74.40
2017-08-21T03:04:19.478Z,75.10
2017-08-21T03:06:47.975Z,75.30
2017-08-21T03:09:16.453Z,75.40
2017-08-21T03:11:44.952Z,75.20
2017-08-21T03:14:13.325Z,75.20
2017-08-21T03:16:41.682Z,75.20
2017-08-21T03:19:10.021Z,75.40
2017-08-21T03:21:38.388Z,75.60
2017-08-21T03:24:06.738Z,75.60
2017-08-21T03:26:35.085Z,75.80
2017-08-21T03:29:03.561Z,75.80
2017-08-21T03:31:32.137Z,75.90
2017-08-21T03:34:00.621Z,76.30
2017-08-21T03:36:28.967Z,76.30
2017-08-21T03:38:57.313Z,76.70
2017-08-21T03:41:25.667Z,77.40
2017-08-21T03:43:54.171Z,77.20
2017-08-21T03:46:22.528Z,76.90
2017-08-21T03:48:50.883Z,77.10
2017-08-21T03:51:19.354Z,77.60
2017-08-21T03:53:47.714Z,77.40
2017-08-21T03:56:16.209Z,77.30
2017-08-21T03:58:44.554Z,77.20
2017-08-21T04:01:12.960Z,77.40
2017-08-21T04:03:41.302Z,77.20
2017-08-21T04:06:09.742Z,77.10
2017-08-21T04:08:38.102Z,77.30
2017-08-21T04:11:06.674Z,77.60
2017-08-21T04:13:35.013Z,77.70
2017-08-21T04:16:03.379Z,77.90
2017-08-21T04:18:31.713Z,78.00
2017-08-21T04:21:00.082Z,78.30
2017-08-21T04:23:28.462Z,78.40
2017-08-21T04:25:56.890Z,78.40
2017-08-21T04:28:25.234Z,78.30
2017-08-21T04:30:53.811Z,77.90
2017-08-21T04:33:22.151Z,77.90
2017-08-21T04:35:50.662Z,78.10
2017-08-21T04:38:19.023Z,78.10
2017-08-21T04:40:47.613Z,78.30
2017-08-21T04:43:16.067Z,78.50
2017-08-21T04:45:44.443Z,78.00
2017-08-21T04:48:12.905Z,78.30
2017-08-21T04:50:41.349Z,78.40
2017-08-21T04:53:09.707Z,79.00
2017-08-21T04:55:38.150Z,79.00
2017-08-21T04:58:06.627Z,79.20
2017-08-21T05:00:35.003Z,79.10
2017-08-21T05:03:03.352Z,78.90
2017-08-21T05:05:31.702Z,79.00
2017-08-21T05:08:00.075Z,79.00
2017-08-21T05:10:28.507Z,78.90
2017-08-21T05:12:56.862Z,79.20
2017-08-21T05:15:25.218Z,79.70
2017-08-21T05:17:53.779Z,79.80
2017-08-21T05:20:22.125Z,80.30
2017-08-21T05:22:50.502Z,80.10
2017-08-21T05:25:19.361Z,80.10
2017-08-21T05:27:47.714Z,80.10
2017-08-21T05:30:16.066Z,80.40
2017-08-21T05:32:44.423Z,80.60
2017-08-21T05:35:12.803Z,79.90
2017-08-21T05:37:41.174Z,80.00
2017-08-21T05:40:11.167Z,80.70
2017-08-21T05:42:39.597Z,80.70
2017-08-21T05:45:07.963Z,80.70
2017-08-21T05:47:36.342Z,80.90
2017-08-21T05:50:04.902Z,81.60
2017-08-21T05:52:33.247Z,81.00
2017-08-21T05:55:01.603Z,81.10
2017-08-21T05:57:30.912Z,80.90
2017-08-21T05:59:59.404Z,80.80
2017-08-21T06:02:27.745Z,80.80
2017-08-21T06:04:56.106Z,80.60
2017-08-21T06:07:24.469Z,80.40
2017-08-21T06:09:52.830Z,80.20
2017-08-21T06:12:21.418Z,80.40
2017-08-21T06:14:49.793Z,80.10
2017-08-21T06:17:18.841Z,79.80
2017-08-21T06:19:47.193Z,79.70
2017-08-21T06:22:15.561Z,79.50
2017-08-21T06:24:44.189Z,79.30
2017-08-21T06:27:13.210Z,79.30
2017-08-21T06:29:41.574Z,79.00
2017-08-21T06:32:09.933Z,79.20
2017-08-21T06:34:38.286Z,78.70
2017-08-21T06:37:06.655Z,78.10
2017-08-21T06:39:34.997Z,77.50
2017-08-21T06:42:03.363Z,77.40
2017-08-21T06:44:31.807Z,76.80
2017-08-21T06:47:00.150Z,77.00
2017-08-21T06:49:28.520Z,76.90
2017-08-21T06:51:56.934Z,77.10
2017-08-21T06:54:25.310Z,76.50
2017-08-21T06:56:53.753Z,77.20
2017-08-21T06:59:22.113Z,77.30
2017-08-21T07:01:50.595Z,77.00
2017-08-21T07:04:18.949Z,76.50
2017-08-21T07:06:47.318Z,75.90
2017-08-21T07:09:15.873Z,75.20
2017-08-21T07:11:44.249Z,75.70
2017-08-21T07:14:12.613Z,75.10
2017-08-21T07:16:41.056Z,74.30
2017-08-21T07:19:09.414Z,74.10
2017-08-21T07:21:37.774Z,74.10
2017-08-21T07:24:06.376Z,74.50
2017-08-21T07:26:34.813Z,74.60
2017-08-21T07:29:03.186Z,74.40
2017-08-21T07:31:31.538Z,74.70
2017-08-21T07:33:59.904Z,74.90
2017-08-21T07:36:28.523Z,74.00
2017-08-21T07:38:56.893Z,73.20
2017-08-21T07:41:25.255Z,71.60
2017-08-21T07:43:53.616Z,70.90
2017-08-21T07:46:21.963Z,71.40
2017-08-21T07:48:50.321Z,70.70
2017-08-21T07:51:19.046Z,69.70
2017-08-21T07:53:47.079Z,70.10
2017-08-21T07:56:15.628Z,70.70
2017-08-21T07:58:44.027Z,71.20
2017-08-21T08:01:12.482Z,71.70
2017-08-21T08:03:40.854Z,71.90
2017-08-21T08:06:09.236Z,72.20
2017-08-21T08:08:37.585Z,72.60
2017-08-21T08:11:05.950Z,72.20
2017-08-21T08:13:34.512Z,71.90
2017-08-21T08:16:02.880Z,71.70
2017-08-21T08:18:31.425Z,70.40
2017-08-21T08:20:59.866Z,69.10
2017-08-21T08:23:28.211Z,68.90
2017-08-21T08:25:56.588Z,67.50
2017-08-21T08:28:24.949Z,66.40
2017-08-21T08:30:53.306Z,66.00
2017-08-21T08:33:21.677Z,65.90
2017-08-21T08:35:50.033Z,64.10
2017-08-21T08:38:18.502Z,64.00
2017-08-21T08:40:46.871Z,63.60
2017-08-21T08:43:15.219Z,63.80
2017-08-21T08:45:43.591Z,64.30
2017-08-21T08:48:11.958Z,63.40
2017-08-21T08:50:40.315Z,63.20
2017-08-21T08:53:08.997Z,61.80
2017-08-21T08:55:37.678Z,62.30
2017-08-21T08:58:06.017Z,61.40
2017-08-21T09:00:34.116Z,62.10
2017-08-21T09:03:02.455Z,61.60
2017-08-21T09:05:31.578Z,61.40
2017-08-21T09:07:59.953Z,61.30
2017-08-21T09:10:28.305Z,60.00
2017-08-21T09:12:56.951Z,59.80
2017-08-21T09:15:25.310Z,57.90
2017-08-21T09:17:53.976Z,58.40
2017-08-21T09:20:22.353Z,58.50
2017-08-21T09:22:50.787Z,57.70
2017-08-21T09:25:19.394Z,57.60
2017-08-21T09:27:48.092Z,57.70
2017-08-21T09:30:16.674Z,56.60
2017-08-21T09:32:45.034Z,55.80
2017-08-21T09:35:13.388Z,56.60
2017-08-21T09:37:41.753Z,56.90
2017-08-21T09:40:09.936Z,56.00
2017-08-21T09:42:38.349Z,55.40
2017-08-21T09:45:07.032Z,55.90
2017-08-21T09:47:35.379Z,54.70
2017-08-21T09:50:03.843Z,54.30
2017-08-21T09:52:32.197Z,53.90
2017-08-21T09:55:00.674Z,54.60
2017-08-21T09:57:29.038Z,53.50
2017-08-21T09:59:57.399Z,53.50
2017-08-21T10:02:25.770Z,52.70
2017-08-21T10:04:54.131Z,52.90
2017-08-21T10:07:22.494Z,52.70
2017-08-21T10:09:51.534Z,53.20
2017-08-21T10:12:20.191Z,51.60
2017-08-21T10:14:48.542Z,50.90
2017-08-21T10:17:16.914Z,50.60
2017-08-21T10:19:45.261Z,51.50
2017-08-21T10:22:13.618Z,51.40
2017-08-21T10:24:42.170Z,51.00
2017-08-21T10:27:10.524Z,50.80
2017-08-21T10:29:38.883Z,49.00
2017-08-21T10:32:07.244Z,49.30
2017-08-21T10:34:35.677Z,50.50
2017-08-21T10:37:04.038Z,49.80
2017-08-21T10:39:32.400Z,49.50
2017-08-21T10:42:00.764Z,48.30
2017-08-21T10:44:29.120Z,49.40
2017-08-21T10:46:57.474Z,49.40
2017-08-21T10:49:26.543Z,47.50
2017-08-21T10:51:54.977Z,45.90
2017-08-21T10:54:23.511Z,46.20
2017-08-21T10:56:51.883Z,45.20
2017-08-21T10:59:20.246Z,44.30
2017-08-21T11:01:48.627Z,46.20
2017-08-21T11:04:17.004Z,46.80
2017-08-21T11:06:45.524Z,45.30
2017-08-21T11:09:13.885Z,46.60
2017-08-21T11:11:42.337Z,46.80
2017-08-21T11:14:10.717Z,44.30
2017-08-21T11:16:39.393Z,45.00
2017-08-21T11:19:07.827Z,46.30
2017-08-21T11:21:36.179Z,45.80
2017-08-21T11:24:04.830Z,45.30
2017-08-21T11:26:33.196Z,44.40
2017-08-21T11:29:01.581Z,44.10
2017-08-21T11:31:29.935Z,44.00
2017-08-21T11:33:59.078Z,44.40
2017-08-21T11:36:27.421Z,44.40
2017-08-21T11:38:55.996Z,44.50
2017-08-21T11:41:24.381Z,44.00
2017-08-21T11:43:52.637Z,43.90
2017-08-21T11:46:21.030Z,43.70
2017-08-21T11:48:49.380Z,42.60
2017-08-21T11:51:17.736Z,43.20
2017-08-21T11:53:46.085Z,43.20
2017-08-21T11:56:14.613Z,43.30
2017-08-21T11:58:42.988Z,44.70
2017-08-21T12:01:12.114Z,42.30
2017-08-21T12:03:41.255Z,42.20
2017-08-21T12:06:09.614Z,42.10
2017-08-21T12:08:37.962Z,41.10
2017-08-21T12:11:06.334Z,40.10
2017-08-21T12:13:34.727Z,39.70
2017-08-21T12:16:03.101Z,40.70
2017-08-21T12:18:31.455Z,39.70
2017-08-21T12:21:00.036Z,39.90
2017-08-21T12:23:28.474Z,40.60
2017-08-21T12:25:57.014Z,40.40
2017-08-21T12:28:25.466Z,40.80
2017-08-21T12:30:53.932Z,40.80
2017-08-21T12:33:22.278Z,41.40
2017-08-21T12:35:50.640Z,40.70
2017-08-21T12:38:18.990Z,41.20
2017-08-21T12:40:47.446Z,42.00
2017-08-21T12:43:15.810Z,42.10
2017-08-21T12:45:44.315Z,41.40
2017-08-21T12:48:12.679Z,41.60
2017-08-21T12:50:41.051Z,42.10
2017-08-21T12:53:09.412Z,42.10
2017-08-21T12:55:37.770Z,41.00
2017-08-21T12:58:06.135Z,41.60
2017-08-21T13:00:34.490Z,42.10
2017-08-21T13:03:03.035Z,42.00
2017-08-21T13:05:31.514Z,41.50
2017-08-21T13:07:59.889Z,42.60
2017-08-21T13:10:28.240Z,42.20
2017-08-21T13:12:57.274Z,42.50
2017-08-21T13:15:25.638Z,42.50
2017-08-21T13:17:54.020Z,43.20
2017-08-21T13:20:22.387Z,43.00
2017-08-21T13:22:50.992Z,42.10
2017-08-21T13:25:19.440Z,41.20
2017-08-21T13:27:47.815Z,41.30
2017-08-21T13:30:16.182Z,41.50
2017-08-21T13:32:44.537Z,42.20
2017-08-21T13:35:12.886Z,42.60
2017-08-21T13:37:41.255Z,44.60
2017-08-21T13:40:09.619Z,42.70
2017-08-21T13:42:38.176Z,41.60
2017-08-21T13:45:06.660Z,42.10
2017-08-21T13:47:35.033Z,41.60
2017-08-21T13:50:03.379Z,41.60
2017-08-21T13:52:31.062Z,41.60
2017-08-21T13:54:59.747Z,41.60
2017-08-21T13:57:28.128Z,41.30
2017-08-21T13:59:56.483Z,41.10
2017-08-21T14:02:24.856Z,40.90
2017-08-21T14:04:53.204Z,41.00
2017-08-21T14:07:21.556Z,41.70
2017-08-21T14:09:49.935Z,41.60
2017-08-21T14:12:19.153Z,41.80
2017-08-21T14:14:47.505Z,41.80
2017-08-21T14:17:15.886Z,40.90
2017-08-21T14:19:44.375Z,40.80
2017-08-21T14:22:12.731Z,42.00
2017-08-21T14:24:41.104Z,40.80
2017-08-21T14:27:09.470Z,40.50
2017-08-21T14:29:37.820Z,40.00
2017-08-21T14:32:06.179Z,40.20
2017-08-21T14:34:34.623Z,41.00
2017-08-21T14:37:02.975Z,39.90
2017-08-21T14:39:31.339Z,40.80
2017-08-21T14:41:59.707Z,40.90
2017-08-21T14:44:28.066Z,39.60
2017-08-21T14:46:56.594Z,39.20
2017-08-21T14:49:24.951Z,40.30
2017-08-21T14:51:53.318Z,40.40
2017-08-21T14:54:21.698Z,40.80
2017-08-21T14:56:50.061Z,41.30
2017-08-21T14:59:18.416Z,41.30
2017-08-21T15:01:47.735Z,41.10
2017-08-21T15:04:16.158Z,41.20
2017-08-21T15:06:44.533Z,42.50
2017-08-21T15:09:13.010Z,40.90
2017-08-21T15:11:42.059Z,41.10
2017-08-21T15:14:10.441Z,41.70
2017-08-21T15:16:38.918Z,40.30
2017-08-21T15:19:07.595Z,41.70
2017-08-21T15:21:36.040Z,41.70
2017-08-21T15:24:04.409Z,41.00
2017-08-21T15:26:33.446Z,39.70
2017-08-21T15:29:02.009Z,41.30
2017-08-21T15:31:30.358Z,40.80
2017-08-21T15:33:58.710Z,40.80
2017-08-21T15:36:27.079Z,40.50
2017-08-21T15:38:55.445Z,42.20
2017-08-21T15:41:23.794Z,42.00
2017-08-21T15:43:52.148Z,40.40
2017-08-21T15:46:20.502Z,39.60
2017-08-21T15:48:48.852Z,39.80
2017-08-21T15:51:17.199Z,40.00
2017-08-21T15:53:45.622Z,40.90
2017-08-21T15:56:13.991Z,41.70
2017-08-21T15:58:42.372Z,43.20
2017-08-21T16:01:10.546Z,44.10
2017-08-21T16:03:38.918Z,44.30
2017-08-21T16:06:07.270Z,40.10
2017-08-21T16:08:35.622Z,41.30
2017-08-21T16:11:03.991Z,39.90
2017-08-21T16:13:32.463Z,41.80
2017-08-21T16:16:00.826Z,41.40
2017-08-21T16:18:29.207Z,45.60
2017-08-21T16:20:59.215Z,45.40
2017-08-21T16:23:27.900Z,48.70
2017-08-21T16:25:56.259Z,44.30
2017-08-21T16:28:24.679Z,47.30
2017-08-21T16:30:53.025Z,42.20
2017-08-21T16:33:21.390Z,41.70
2017-08-21T16:35:49.973Z,42.60
2017-08-21T16:38:18.589Z,42.30
2017-08-21T16:40:46.862Z,42.30
2017-08-21T16:43:15.218Z,42.90
2017-08-21T16:45:43.583Z,41.90
2017-08-21T16:48:11.947Z,43.00
2017-08-21T16:50:40.469Z,44.50
2017-08-21T16:53:08.849Z,40.90
2017-08-21T16:55:37.277Z,41.10
2017-08-21T16:58:06.518Z,42.50
2017-08-21T17:00:34.945Z,42.30
2017-08-21T17:03:03.289Z,42.30
2017-08-21T17:05:31.718Z,42.40
2017-08-21T17:08:00.080Z,42.20
2017-08-21T17:10:28.460Z,42.30
2017-08-21T17:12:57.080Z,42.00
2017-08-21T17:15:25.522Z,41.50
2017-08-21T17:17:53.869Z,41.80
2017-08-21T17:20:21.538Z,41.20
2017-08-21T17:22:50.518Z,41.70
2017-08-21T17:25:18.921Z,42.00
2017-08-21T17:27:47.336Z,42.20
2017-08-21T17:30:15.691Z,42.40
2017-08-21T17:32:44.046Z,42.40
2017-08-21T17:35:12.410Z,42.60
2017-08-21T17:37:41.495Z,43.10
2017-08-21T17:40:09.865Z,43.40
2017-08-21T17:42:38.236Z,43.40
2017-08-21T17:45:06.601Z,43.50
2017-08-21T17:47:34.969Z,43.50
2017-08-21T17:50:03.356Z,43.90
2017-08-21T17:52:31.911Z,43.70
2017-08-21T17:55:00.273Z,44.50
2017-08-21T17:57:28.647Z,44.80
2017-08-21T17:59:57.141Z,45.30
2017-08-21T18:02:25.599Z,46.00
2017-08-21T18:04:53.998Z,46.80
2017-08-21T18:07:22.387Z,47.60
2017-08-21T18:09:50.767Z,47.80
2017-08-21T18:12:18.796Z,48.00
2017-08-21T18:14:47.155Z,48.00
2017-08-21T18:17:15.517Z,48.20
2017-08-21T18:19:43.991Z,48.60
2017-08-21T18:22:12.342Z,48.60
2017-08-21T18:24:40.711Z,49.30
2017-08-21T18:27:09.889Z,48.80
2017-08-21T18:29:38.277Z,49.20
2017-08-21T18:32:06.630Z,49.60
2017-08-21T18:34:35.074Z,49.70
2017-08-21T18:37:03.567Z,50.00
2017-08-21T18:39:32.027Z,50.30
2017-08-21T18:42:01.172Z,50.10
2017-08-21T18:44:29.552Z,50.20
2017-08-21T18:46:57.921Z,50.40
2017-08-21T18:49:26.358Z,50.40
2017-08-21T18:51:54.773Z,50.20
2017-08-21T18:54:23.274Z,50.70
2017-08-21T18:56:51.637Z,50.50
2017-08-21T18:59:20.012Z,50.10
2017-08-21T19:01:48.482Z,50.10
2017-08-21T19:04:16.839Z,50.60
2017-08-21T19:06:45.202Z,50.00
2017-08-21T19:09:13.569Z,50.00
2017-08-21T19:11:41.988Z,50.00
2017-08-21T19:14:10.343Z,49.10
2017-08-21T19:16:38.707Z,49.50
2017-08-21T19:19:07.078Z,49.80
2017-08-21T19:21:35.491Z,50.30
2017-08-21T19:24:03.844Z,51.10
2017-08-21T19:26:32.212Z,51.30
2017-08-21T19:29:00.626Z,51.60
2017-08-21T19:31:29.196Z,51.40
2017-08-21T19:33:57.560Z,51.40
2017-08-21T19:36:25.920Z,51.60
2017-08-21T19:38:54.280Z,51.40
2017-08-21T19:41:22.635Z,51.40
2017-08-21T19:43:51.079Z,51.50
2017-08-21T19:46:19.458Z,51.90
2017-08-21T19:48:47.806Z,52.20
2017-08-21T19:51:17.134Z,52.70
2017-08-21T19:53:45.687Z,52.70
2017-08-21T19:56:14.180Z,52.60
2017-08-21T19:58:42.572Z,52.60
2017-08-21T20:01:10.928Z,52.60
2017-08-21T20:03:39.282Z,52.60
2017-08-21T20:06:07.664Z,52.70
2017-08-21T20:08:36.807Z,53.90
2017-08-21T20:11:05.166Z,53.80
2017-08-21T20:13:33.694Z,53.90
2017-08-21T20:16:02.042Z,53.80
2017-08-21T20:18:30.420Z,53.50
2017-08-21T20:20:58.988Z,53.90
2017-08-21T20:23:27.352Z,53.90
2017-08-21T20:25:55.727Z,53.90
2017-08-21T20:28:24.097Z,54.10
2017-08-21T20:30:52.482Z,54.10
2017-08-21T20:33:20.856Z,54.30
2017-08-21T20:35:49.337Z,54.50
2017-08-21T20:38:18.348Z,55.00
2017-08-21T20:40:46.727Z,55.50
2017-08-21T20:43:15.374Z,56.40
2017-08-21T20:45:43.768Z,56.50
2017-08-21T20:48:12.140Z,56.10
2017-08-21T20:50:40.577Z,55.80
2017-08-21T20:53:08.952Z,56.30
2017-08-21T20:55:37.306Z,57.10
2017-08-21T20:58:05.932Z,57.50
2017-08-21T21:00:34.312Z,57.50
2017-08-21T21:03:02.975Z,58.00
2017-08-21T21:05:31.605Z,58.50
2017-08-21T21:08:00.055Z,58.50
2017-08-21T21:10:28.420Z,58.50
2017-08-21T21:12:56.767Z,58.60
2017-08-21T21:15:25.134Z,58.80
2017-08-21T21:17:53.512Z,58.20
2017-08-21T21:20:21.866Z,58.00
2017-08-21T21:23:25.603Z,57.80
2017-08-21T21:25:53.964Z,57.80
2017-08-21T21:28:22.340Z,58.20
2017-08-21T21:30:50.862Z,57.80
2017-08-21T21:33:19.237Z,57.90
2017-08-21T21:35:47.611Z,58.10
2017-08-21T21:38:15.966Z,58.40
2017-08-21T21:40:44.318Z,58.60
2017-08-21T21:43:12.692Z,58.60
2017-08-21T21:45:41.045Z,58.10
2017-08-21T21:48:09.413Z,58.20
2017-08-21T21:50:37.872Z,58.00
2017-08-21T21:53:06.243Z,58.20
2017-08-21T21:55:34.587Z,58.30
2017-08-21T21:58:02.957Z,58.70
2017-08-21T22:00:31.371Z,58.60
2017-08-21T22:02:59.850Z,58.80
2017-08-21T22:05:28.328Z,58.50
2017-08-21T22:07:56.804Z,58.70
2017-08-21T22:10:25.364Z,58.80
2017-08-21T22:12:53.701Z,58.70
2017-08-21T22:15:22.064Z,58.80
2017-08-21T22:17:50.455Z,58.80
2017-08-21T22:20:18.815Z,58.80
2017-08-21T22:22:47.266Z,58.90
2017-08-21T22:25:15.617Z,58.70
2017-08-21T22:27:44.014Z,58.80
2017-08-21T22:30:12.597Z,58.90
2017-08-21T22:32:41.115Z,59.10
2017-08-21T22:35:09.486Z,59.40
2017-08-21T22:37:38.136Z,59.70
2017-08-21T22:40:06.496Z,59.70
2017-08-21T22:42:34.993Z,60.00
2017-08-21T22:45:03.370Z,60.10
2017-08-21T22:47:31.741Z,60.00
2017-08-21T22:50:00.075Z,60.30
2017-08-21T22:52:28.436Z,60.50
2017-08-21T22:54:56.872Z,60.90
2017-08-21T22:57:25.450Z,61.40
2017-08-21T22:59:53.824Z,61.20
2017-08-21T23:02:22.178Z,61.30
2017-08-21T23:04:50.540Z,61.40
2017-08-21T23:07:19.876Z,60.80
2017-08-21T23:09:48.306Z,60.90
2017-08-21T23:12:16.668Z,60.40
2017-08-21T23:14:45.233Z,60.30
2017-08-21T23:17:13.576Z,59.90
2017-08-21T23:19:41.930Z,60.10
2017-08-21T23:22:10.436Z,60.30
2017-08-21T23:24:39.569Z,60.10
2017-08-21T23:27:08.111Z,60.00
2017-08-21T23:29:36.463Z,60.60
2017-08-21T23:32:04.923Z,61.90
2017-08-21T23:34:33.484Z,62.20
2017-08-21T23:37:01.846Z,62.80
2017-08-21T23:39:30.468Z,63.60
2017-08-21T23:41:58.976Z,63.90
2017-08-21T23:44:27.405Z,64.30
2017-08-21T23:46:55.762Z,64.60
2017-08-21T23:49:24.413Z,64.80
2017-08-21T23:51:52.754Z,64.80
2017-08-21T23:54:22.078Z,64.00
2017-08-21T23:56:50.460Z,63.90
2017-08-21T23:59:18.818Z,63.70
